sensor_id;sensor_type;location;lat;lon;timestamp;P1;durP1;ratioP1;P2;durP2;ratioP2
59189;SDS011;50749;51.636;4.948;2023-07-28T00:00:30;1.73;;;1.20;;
59189;SDS011;50749;51.636;4.948;2023-07-28T00:03:15;1.27;;;1.00;;
59189;SDS011;50749;51.636;4.948;2023-07-28T00:05:41;1.25;;;1.10;;
59189;SDS011;50749;51.636;4.948;2023-07-28T00:08:06;1.45;;;1.17;;
59189;SDS011;50749;51.636;4.948;2023-07-28T00:10:32;1.50;;;1.10;;
59189;SDS011;50749;51.636;4.948;2023-07-28T00:12:58;1.35;;;1.10;;
59189;SDS011;50749;51.636;4.948;2023-07-28T00:15:24;1.88;;;1.00;;
59189;SDS011;50749;51.636;4.948;2023-07-28T00:17:50;1.40;;;1.10;;
59189;SDS011;50749;51.636;4.948;2023-07-28T00:20:17;1.40;;;1.00;;
59189;SDS011;50749;51.636;4.948;2023-07-28T00:22:43;1.38;;;0.98;;
59189;SDS011;50749;51.636;4.948;2023-07-28T00:25:09;1.33;;;1.10;;
59189;SDS011;50749;51.636;4.948;2023-07-28T00:27:34;2.67;;;1.17;;
59189;SDS011;50749;51.636;4.948;2023-07-28T00:30:00;1.25;;;0.95;;
59189;SDS011;50749;51.636;4.948;2023-07-28T00:32:26;1.45;;;1.00;;
59189;SDS011;50749;51.636;4.948;2023-07-28T00:34:52;1.65;;;1.10;;
59189;SDS011;50749;51.636;4.948;2023-07-28T00:37:17;3.42;;;1.30;;
59189;SDS011;50749;51.636;4.948;2023-07-28T00:39:43;1.60;;;1.10;;
59189;SDS011;50749;51.636;4.948;2023-07-28T00:42:08;1.67;;;1.08;;
59189;SDS011;50749;51.636;4.948;2023-07-28T00:44:35;1.15;;;1.05;;
59189;SDS011;50749;51.636;4.948;2023-07-28T00:47:00;1.80;;;1.00;;
59189;SDS011;50749;51.636;4.948;2023-07-28T00:49:26;1.38;;;1.00;;
59189;SDS011;50749;51.636;4.948;2023-07-28T00:51:52;1.05;;;0.82;;
59189;SDS011;50749;51.636;4.948;2023-07-28T00:54:18;2.22;;;1.40;;
59189;SDS011;50749;51.636;4.948;2023-07-28T00:56:44;1.38;;;1.00;;
59189;SDS011;50749;51.636;4.948;2023-07-28T00:59:10;1.85;;;1.25;;
59189;SDS011;50749;51.636;4.948;2023-07-28T01:01:36;1.75;;;1.35;;
59189;SDS011;50749;51.636;4.948;2023-07-28T01:04:02;1.45;;;1.10;;
59189;SDS011;50749;51.636;4.948;2023-07-28T01:06:43;2.25;;;1.55;;
59189;SDS011;50749;51.636;4.948;2023-07-28T01:09:21;2.22;;;1.30;;
59189;SDS011;50749;51.636;4.948;2023-07-28T01:11:52;2.85;;;1.27;;
59189;SDS011;50749;51.636;4.948;2023-07-28T01:14:24;1.85;;;1.30;;
59189;SDS011;50749;51.636;4.948;2023-07-28T01:16:50;2.03;;;1.20;;
59189;SDS011;50749;51.636;4.948;2023-07-28T01:19:17;2.35;;;1.13;;
59189;SDS011;50749;51.636;4.948;2023-07-28T01:21:45;1.58;;;1.10;;
59189;SDS011;50749;51.636;4.948;2023-07-28T01:24:26;2.55;;;1.50;;
59189;SDS011;50749;51.636;4.948;2023-07-28T01:27:00;2.10;;;1.50;;
59189;SDS011;50749;51.636;4.948;2023-07-28T01:29:26;1.80;;;1.27;;
59189;SDS011;50749;51.636;4.948;2023-07-28T01:31:53;1.90;;;1.23;;
59189;SDS011;50749;51.636;4.948;2023-07-28T01:34:18;1.85;;;1.27;;
59189;SDS011;50749;51.636;4.948;2023-07-28T01:36:44;2.00;;;1.42;;
59189;SDS011;50749;51.636;4.948;2023-07-28T01:39:10;2.60;;;1.63;;
59189;SDS011;50749;51.636;4.948;2023-07-28T01:41:35;5.05;;;1.50;;
59189;SDS011;50749;51.636;4.948;2023-07-28T01:44:02;2.10;;;1.60;;
59189;SDS011;50749;51.636;4.948;2023-07-28T01:46:27;2.65;;;1.63;;
59189;SDS011;50749;51.636;4.948;2023-07-28T01:48:53;2.60;;;1.40;;
59189;SDS011;50749;51.636;4.948;2023-07-28T01:51:19;4.13;;;1.90;;
59189;SDS011;50749;51.636;4.948;2023-07-28T01:53:45;2.55;;;1.58;;
59189;SDS011;50749;51.636;4.948;2023-07-28T01:56:11;2.83;;;1.55;;
59189;SDS011;50749;51.636;4.948;2023-07-28T01:58:36;2.97;;;1.83;;
59189;SDS011;50749;51.636;4.948;2023-07-28T02:01:02;2.58;;;1.77;;
59189;SDS011;50749;51.636;4.948;2023-07-28T02:03:28;3.05;;;1.95;;
59189;SDS011;50749;51.636;4.948;2023-07-28T02:05:54;5.78;;;2.25;;
59189;SDS011;50749;51.636;4.948;2023-07-28T02:08:20;3.95;;;1.90;;
59189;SDS011;50749;51.636;4.948;2023-07-28T02:10:46;3.95;;;2.10;;
59189;SDS011;50749;51.636;4.948;2023-07-28T02:13:12;3.50;;;2.10;;
59189;SDS011;50749;51.636;4.948;2023-07-28T02:15:37;3.42;;;2.17;;
59189;SDS011;50749;51.636;4.948;2023-07-28T02:18:03;3.65;;;2.13;;
59189;SDS011;50749;51.636;4.948;2023-07-28T02:20:29;3.60;;;2.20;;
59189;SDS011;50749;51.636;4.948;2023-07-28T02:22:55;3.53;;;2.20;;
59189;SDS011;50749;51.636;4.948;2023-07-28T02:25:21;4.25;;;2.17;;
59189;SDS011;50749;51.636;4.948;2023-07-28T02:27:47;3.97;;;2.40;;
59189;SDS011;50749;51.636;4.948;2023-07-28T02:30:13;4.57;;;2.53;;
59189;SDS011;50749;51.636;4.948;2023-07-28T02:32:39;5.90;;;2.40;;
59189;SDS011;50749;51.636;4.948;2023-07-28T02:35:04;3.45;;;2.30;;
59189;SDS011;50749;51.636;4.948;2023-07-28T02:37:31;4.93;;;2.92;;
59189;SDS011;50749;51.636;4.948;2023-07-28T02:39:56;5.10;;;2.65;;
59189;SDS011;50749;51.636;4.948;2023-07-28T02:42:22;6.78;;;3.05;;
59189;SDS011;50749;51.636;4.948;2023-07-28T02:44:49;4.72;;;2.80;;
59189;SDS011;50749;51.636;4.948;2023-07-28T02:47:14;4.60;;;3.00;;
59189;SDS011;50749;51.636;4.948;2023-07-28T02:49:40;5.05;;;3.00;;
59189;SDS011;50749;51.636;4.948;2023-07-28T02:52:08;6.40;;;2.97;;
59189;SDS011;50749;51.636;4.948;2023-07-28T02:54:33;5.20;;;2.90;;
59189;SDS011;50749;51.636;4.948;2023-07-28T02:56:59;4.72;;;3.22;;
59189;SDS011;50749;51.636;4.948;2023-07-28T02:59:25;5.47;;;2.97;;
59189;SDS011;50749;51.636;4.948;2023-07-28T03:01:51;7.60;;;3.70;;
59189;SDS011;50749;51.636;4.948;2023-07-28T03:04:17;6.10;;;3.25;;
59189;SDS011;50749;51.636;4.948;2023-07-28T03:06:45;4.90;;;3.45;;
59189;SDS011;50749;51.636;4.948;2023-07-28T03:09:12;6.70;;;3.90;;
59189;SDS011;50749;51.636;4.948;2023-07-28T03:11:37;5.80;;;3.50;;
59189;SDS011;50749;51.636;4.948;2023-07-28T03:14:03;6.13;;;3.83;;
59189;SDS011;50749;51.636;4.948;2023-07-28T03:16:29;5.97;;;3.67;;
59189;SDS011;50749;51.636;4.948;2023-07-28T03:18:54;7.47;;;4.70;;
59189;SDS011;50749;51.636;4.948;2023-07-28T03:21:20;6.63;;;4.43;;
59189;SDS011;50749;51.636;4.948;2023-07-28T03:23:46;5.15;;;3.88;;
59189;SDS011;50749;51.636;4.948;2023-07-28T03:26:12;6.38;;;4.10;;
59189;SDS011;50749;51.636;4.948;2023-07-28T03:28:38;6.50;;;4.18;;
59189;SDS011;50749;51.636;4.948;2023-07-28T03:31:03;7.90;;;4.72;;
59189;SDS011;50749;51.636;4.948;2023-07-28T03:33:29;8.88;;;4.43;;
59189;SDS011;50749;51.636;4.948;2023-07-28T03:35:55;7.40;;;4.25;;
59189;SDS011;50749;51.636;4.948;2023-07-28T03:38:20;4.85;;;3.83;;
59189;SDS011;50749;51.636;4.948;2023-07-28T03:40:46;7.65;;;4.22;;
59189;SDS011;50749;51.636;4.948;2023-07-28T03:43:12;5.32;;;4.28;;
59189;SDS011;50749;51.636;4.948;2023-07-28T03:45:38;7.38;;;4.55;;
59189;SDS011;50749;51.636;4.948;2023-07-28T03:48:04;8.02;;;4.50;;
59189;SDS011;50749;51.636;4.948;2023-07-28T03:50:30;6.45;;;3.90;;
59189;SDS011;50749;51.636;4.948;2023-07-28T03:52:55;8.20;;;4.90;;
59189;SDS011;50749;51.636;4.948;2023-07-28T03:55:21;9.88;;;5.28;;
59189;SDS011;50749;51.636;4.948;2023-07-28T03:57:47;10.02;;;4.57;;
59189;SDS011;50749;51.636;4.948;2023-07-28T04:00:13;9.98;;;5.10;;
59189;SDS011;50749;51.636;4.948;2023-07-28T04:02:39;8.70;;;4.65;;
59189;SDS011;50749;51.636;4.948;2023-07-28T04:05:05;7.38;;;5.22;;
59189;SDS011;50749;51.636;4.948;2023-07-28T04:07:31;7.63;;;4.80;;
59189;SDS011;50749;51.636;4.948;2023-07-28T04:09:57;6.43;;;4.53;;
59189;SDS011;50749;51.636;4.948;2023-07-28T04:12:22;7.43;;;4.75;;
59189;SDS011;50749;51.636;4.948;2023-07-28T04:14:48;9.15;;;5.13;;
59189;SDS011;50749;51.636;4.948;2023-07-28T04:17:14;6.22;;;4.60;;
59189;SDS011;50749;51.636;4.948;2023-07-28T04:19:40;9.63;;;4.97;;
59189;SDS011;50749;51.636;4.948;2023-07-28T04:22:05;8.15;;;5.00;;
59189;SDS011;50749;51.636;4.948;2023-07-28T04:24:31;7.45;;;4.97;;
59189;SDS011;50749;51.636;4.948;2023-07-28T04:26:57;7.78;;;4.80;;
59189;SDS011;50749;51.636;4.948;2023-07-28T04:29:23;7.45;;;4.75;;
59189;SDS011;50749;51.636;4.948;2023-07-28T04:31:49;9.45;;;4.97;;
59189;SDS011;50749;51.636;4.948;2023-07-28T04:34:15;6.82;;;5.03;;
59189;SDS011;50749;51.636;4.948;2023-07-28T04:36:41;8.45;;;5.30;;
59189;SDS011;50749;51.636;4.948;2023-07-28T04:39:06;6.63;;;4.90;;
59189;SDS011;50749;51.636;4.948;2023-07-28T04:41:32;8.85;;;5.57;;
59189;SDS011;50749;51.636;4.948;2023-07-28T04:43:58;7.57;;;4.95;;
59189;SDS011;50749;51.636;4.948;2023-07-28T04:46:23;9.00;;;5.05;;
59189;SDS011;50749;51.636;4.948;2023-07-28T04:48:49;8.70;;;5.55;;
59189;SDS011;50749;51.636;4.948;2023-07-28T04:51:15;7.03;;;5.25;;
59189;SDS011;50749;51.636;4.948;2023-07-28T04:53:41;8.20;;;5.70;;
59189;SDS011;50749;51.636;4.948;2023-07-28T04:56:07;7.50;;;4.75;;
59189;SDS011;50749;51.636;4.948;2023-07-28T04:58:33;7.47;;;5.43;;
59189;SDS011;50749;51.636;4.948;2023-07-28T05:00:59;7.50;;;5.25;;
59189;SDS011;50749;51.636;4.948;2023-07-28T05:03:25;12.93;;;5.90;;
59189;SDS011;50749;51.636;4.948;2023-07-28T05:05:50;7.25;;;5.10;;
59189;SDS011;50749;51.636;4.948;2023-07-28T05:08:16;8.82;;;5.43;;
59189;SDS011;50749;51.636;4.948;2023-07-28T05:10:42;6.85;;;5.22;;
59189;SDS011;50749;51.636;4.948;2023-07-28T05:13:08;8.32;;;5.45;;
59189;SDS011;50749;51.636;4.948;2023-07-28T05:15:34;9.90;;;5.50;;
59189;SDS011;50749;51.636;4.948;2023-07-28T05:18:00;8.50;;;4.85;;
59189;SDS011;50749;51.636;4.948;2023-07-28T05:20:25;9.35;;;5.72;;
59189;SDS011;50749;51.636;4.948;2023-07-28T05:22:51;7.53;;;5.68;;
59189;SDS011;50749;51.636;4.948;2023-07-28T05:25:17;9.43;;;5.18;;
59189;SDS011;50749;51.636;4.948;2023-07-28T05:27:43;7.05;;;5.20;;
59189;SDS011;50749;51.636;4.948;2023-07-28T05:30:08;7.28;;;5.20;;
59189;SDS011;50749;51.636;4.948;2023-07-28T05:32:35;8.07;;;5.07;;
59189;SDS011;50749;51.636;4.948;2023-07-28T05:35:01;8.65;;;5.72;;
59189;SDS011;50749;51.636;4.948;2023-07-28T05:37:27;9.48;;;5.43;;
59189;SDS011;50749;51.636;4.948;2023-07-28T05:39:52;8.93;;;5.55;;
59189;SDS011;50749;51.636;4.948;2023-07-28T05:42:18;8.38;;;5.90;;
59189;SDS011;50749;51.636;4.948;2023-07-28T05:44:44;8.10;;;5.80;;
59189;SDS011;50749;51.636;4.948;2023-07-28T05:47:10;10.13;;;5.78;;
59189;SDS011;50749;51.636;4.948;2023-07-28T05:49:35;9.10;;;5.80;;
59189;SDS011;50749;51.636;4.948;2023-07-28T05:52:01;7.57;;;6.10;;
59189;SDS011;50749;51.636;4.948;2023-07-28T05:54:27;10.27;;;5.43;;
59189;SDS011;50749;51.636;4.948;2023-07-28T05:56:53;8.43;;;5.47;;
59189;SDS011;50749;51.636;4.948;2023-07-28T05:59:18;9.63;;;5.88;;
59189;SDS011;50749;51.636;4.948;2023-07-28T06:01:44;7.35;;;5.40;;
59189;SDS011;50749;51.636;4.948;2023-07-28T06:04:10;7.57;;;4.88;;
59189;SDS011;50749;51.636;4.948;2023-07-28T06:06:36;7.30;;;4.95;;
59189;SDS011;50749;51.636;4.948;2023-07-28T06:09:02;6.47;;;4.78;;
59189;SDS011;50749;51.636;4.948;2023-07-28T06:11:28;7.13;;;4.32;;
59189;SDS011;50749;51.636;4.948;2023-07-28T06:13:53;7.55;;;4.18;;
59189;SDS011;50749;51.636;4.948;2023-07-28T06:16:19;9.10;;;5.63;;
59189;SDS011;50749;51.636;4.948;2023-07-28T06:18:45;9.90;;;5.47;;
59189;SDS011;50749;51.636;4.948;2023-07-28T06:21:11;11.85;;;5.55;;
59189;SDS011;50749;51.636;4.948;2023-07-28T06:23:36;8.80;;;4.88;;
59189;SDS011;50749;51.636;4.948;2023-07-28T06:26:02;7.95;;;4.68;;
59189;SDS011;50749;51.636;4.948;2023-07-28T06:28:28;8.55;;;4.68;;
59189;SDS011;50749;51.636;4.948;2023-07-28T06:30:54;9.70;;;5.35;;
59189;SDS011;50749;51.636;4.948;2023-07-28T06:33:20;8.90;;;4.70;;
59189;SDS011;50749;51.636;4.948;2023-07-28T06:35:46;8.48;;;5.10;;
59189;SDS011;50749;51.636;4.948;2023-07-28T06:38:12;9.68;;;5.05;;
59189;SDS011;50749;51.636;4.948;2023-07-28T06:40:38;6.93;;;4.72;;
59189;SDS011;50749;51.636;4.948;2023-07-28T06:43:04;9.07;;;5.55;;
59189;SDS011;50749;51.636;4.948;2023-07-28T06:45:30;8.77;;;5.88;;
59189;SDS011;50749;51.636;4.948;2023-07-28T06:47:56;8.48;;;4.88;;
59189;SDS011;50749;51.636;4.948;2023-07-28T06:50:21;8.13;;;5.65;;
59189;SDS011;50749;51.636;4.948;2023-07-28T06:52:47;10.05;;;6.22;;
59189;SDS011;50749;51.636;4.948;2023-07-28T06:55:14;13.15;;;6.28;;
59189;SDS011;50749;51.636;4.948;2023-07-28T06:57:40;9.82;;;5.28;;
59189;SDS011;50749;51.636;4.948;2023-07-28T07:00:06;7.40;;;5.30;;
59189;SDS011;50749;51.636;4.948;2023-07-28T07:02:35;8.32;;;6.00;;
59189;SDS011;50749;51.636;4.948;2023-07-28T07:05:01;7.97;;;5.70;;
59189;SDS011;50749;51.636;4.948;2023-07-28T07:07:27;8.10;;;6.00;;
59189;SDS011;50749;51.636;4.948;2023-07-28T07:09:53;9.20;;;6.40;;
59189;SDS011;50749;51.636;4.948;2023-07-28T07:12:18;9.40;;;6.03;;
59189;SDS011;50749;51.636;4.948;2023-07-28T07:14:46;10.63;;;6.80;;
59189;SDS011;50749;51.636;4.948;2023-07-28T07:17:12;9.63;;;6.60;;
59189;SDS011;50749;51.636;4.948;2023-07-28T07:19:39;9.02;;;5.95;;
59189;SDS011;50749;51.636;4.948;2023-07-28T07:22:04;10.40;;;7.15;;
59189;SDS011;50749;51.636;4.948;2023-07-28T07:24:31;10.75;;;6.90;;
59189;SDS011;50749;51.636;4.948;2023-07-28T07:26:57;10.43;;;6.70;;
59189;SDS011;50749;51.636;4.948;2023-07-28T07:29:23;10.07;;;6.95;;
59189;SDS011;50749;51.636;4.948;2023-07-28T07:31:48;8.48;;;6.68;;
59189;SDS011;50749;51.636;4.948;2023-07-28T07:34:14;12.23;;;7.57;;
59189;SDS011;50749;51.636;4.948;2023-07-28T07:36:40;11.18;;;7.38;;
59189;SDS011;50749;51.636;4.948;2023-07-28T07:39:06;12.32;;;7.85;;
59189;SDS011;50749;51.636;4.948;2023-07-28T07:41:31;10.85;;;7.38;;
59189;SDS011;50749;51.636;4.948;2023-07-28T07:43:57;12.90;;;7.05;;
59189;SDS011;50749;51.636;4.948;2023-07-28T07:46:23;12.55;;;6.93;;
59189;SDS011;50749;51.636;4.948;2023-07-28T07:48:49;16.00;;;6.57;;
59189;SDS011;50749;51.636;4.948;2023-07-28T07:51:15;14.15;;;7.07;;
59189;SDS011;50749;51.636;4.948;2023-07-28T07:53:41;10.50;;;7.25;;
59189;SDS011;50749;51.636;4.948;2023-07-28T07:56:07;19.98;;;7.85;;
59189;SDS011;50749;51.636;4.948;2023-07-28T07:58:34;13.10;;;7.78;;
59189;SDS011;50749;51.636;4.948;2023-07-28T08:01:00;10.80;;;6.43;;
59189;SDS011;50749;51.636;4.948;2023-07-28T08:03:26;8.65;;;6.15;;
59189;SDS011;50749;51.636;4.948;2023-07-28T08:05:52;9.63;;;6.38;;
59189;SDS011;50749;51.636;4.948;2023-07-28T08:08:19;9.55;;;5.93;;
59189;SDS011;50749;51.636;4.948;2023-07-28T08:10:45;8.32;;;5.43;;
59189;SDS011;50749;51.636;4.948;2023-07-28T08:13:13;9.77;;;5.88;;
59189;SDS011;50749;51.636;4.948;2023-07-28T08:15:39;8.55;;;5.35;;
59189;SDS011;50749;51.636;4.948;2023-07-28T08:18:07;12.55;;;5.88;;
59189;SDS011;50749;51.636;4.948;2023-07-28T08:20:32;9.63;;;5.65;;
59189;SDS011;50749;51.636;4.948;2023-07-28T08:22:58;8.35;;;5.32;;
59189;SDS011;50749;51.636;4.948;2023-07-28T08:25:24;10.38;;;5.75;;
59189;SDS011;50749;51.636;4.948;2023-07-28T08:27:49;6.90;;;4.70;;
59189;SDS011;50749;51.636;4.948;2023-07-28T08:30:15;7.95;;;4.88;;
59189;SDS011;50749;51.636;4.948;2023-07-28T08:32:41;8.63;;;5.25;;
59189;SDS011;50749;51.636;4.948;2023-07-28T08:35:08;8.95;;;4.57;;
59189;SDS011;50749;51.636;4.948;2023-07-28T08:37:34;7.22;;;4.63;;
59189;SDS011;50749;51.636;4.948;2023-07-28T08:40:00;7.70;;;4.68;;
59189;SDS011;50749;51.636;4.948;2023-07-28T08:42:28;7.50;;;4.45;;
59189;SDS011;50749;51.636;4.948;2023-07-28T08:44:54;7.43;;;5.15;;
59189;SDS011;50749;51.636;4.948;2023-07-28T08:47:20;6.65;;;4.10;;
59189;SDS011;50749;51.636;4.948;2023-07-28T08:49:46;11.10;;;4.75;;
59189;SDS011;50749;51.636;4.948;2023-07-28T08:52:16;5.25;;;3.80;;
59189;SDS011;50749;51.636;4.948;2023-07-28T08:54:42;7.40;;;4.30;;
59189;SDS011;50749;51.636;4.948;2023-07-28T08:57:11;8.73;;;4.78;;
59189;SDS011;50749;51.636;4.948;2023-07-28T08:59:37;6.05;;;4.22;;
59189;SDS011;50749;51.636;4.948;2023-07-28T09:02:08;5.25;;;3.78;;
59189;SDS011;50749;51.636;4.948;2023-07-28T09:04:35;6.57;;;4.28;;
59189;SDS011;50749;51.636;4.948;2023-07-28T09:07:02;5.15;;;3.80;;
59189;SDS011;50749;51.636;4.948;2023-07-28T09:09:31;4.78;;;3.25;;
59189;SDS011;50749;51.636;4.948;2023-07-28T09:11:58;6.68;;;4.32;;
59189;SDS011;50749;51.636;4.948;2023-07-28T09:14:25;7.85;;;4.05;;
59189;SDS011;50749;51.636;4.948;2023-07-28T09:16:51;6.00;;;4.00;;
59189;SDS011;50749;51.636;4.948;2023-07-28T09:19:19;5.88;;;3.90;;
59189;SDS011;50749;51.636;4.948;2023-07-28T09:21:47;4.97;;;3.60;;
59189;SDS011;50749;51.636;4.948;2023-07-28T09:24:28;4.97;;;3.55;;
59189;SDS011;50749;51.636;4.948;2023-07-28T09:26:57;7.93;;;3.53;;
59189;SDS011;50749;51.636;4.948;2023-07-28T09:29:23;6.65;;;4.10;;
59189;SDS011;50749;51.636;4.948;2023-07-28T09:31:52;5.35;;;3.45;;
59189;SDS011;50749;51.636;4.948;2023-07-28T09:34:26;8.70;;;4.57;;
59189;SDS011;50749;51.636;4.948;2023-07-28T09:36:53;6.22;;;3.67;;
59189;SDS011;50749;51.636;4.948;2023-07-28T09:39:20;7.05;;;3.72;;
59189;SDS011;50749;51.636;4.948;2023-07-28T09:41:46;6.50;;;3.47;;
59189;SDS011;50749;51.636;4.948;2023-07-28T09:44:13;7.63;;;3.67;;
59189;SDS011;50749;51.636;4.948;2023-07-28T09:46:50;5.28;;;3.63;;
59189;SDS011;50749;51.636;4.948;2023-07-28T09:49:22;4.82;;;3.75;;
59189;SDS011;50749;51.636;4.948;2023-07-28T09:52:08;4.85;;;3.20;;
59189;SDS011;50749;51.636;4.948;2023-07-28T09:54:38;4.68;;;3.30;;
59189;SDS011;50749;51.636;4.948;2023-07-28T09:57:06;5.57;;;3.92;;
59189;SDS011;50749;51.636;4.948;2023-07-28T09:59:39;4.78;;;3.70;;
59189;SDS011;50749;51.636;4.948;2023-07-28T10:02:07;4.18;;;3.00;;
59189;SDS011;50749;51.636;4.948;2023-07-28T10:04:34;7.90;;;3.47;;
59189;SDS011;50749;51.636;4.948;2023-07-28T10:07:01;5.35;;;3.78;;
59189;SDS011;50749;51.636;4.948;2023-07-28T10:09:29;5.72;;;3.40;;
59189;SDS011;50749;51.636;4.948;2023-07-28T10:11:56;4.57;;;3.63;;
59189;SDS011;50749;51.636;4.948;2023-07-28T10:14:25;6.78;;;3.13;;
59189;SDS011;50749;51.636;4.948;2023-07-28T10:16:51;4.53;;;3.30;;
59189;SDS011;50749;51.636;4.948;2023-07-28T10:19:19;4.82;;;3.40;;
59189;SDS011;50749;51.636;4.948;2023-07-28T10:21:46;5.25;;;3.55;;
59189;SDS011;50749;51.636;4.948;2023-07-28T10:24:11;6.20;;;3.10;;
59189;SDS011;50749;51.636;4.948;2023-07-28T10:26:38;6.22;;;3.88;;
59189;SDS011;50749;51.636;4.948;2023-07-28T10:31:54;7.20;;;2.97;;
59189;SDS011;50749;51.636;4.948;2023-07-28T10:34:21;6.85;;;3.78;;
59189;SDS011;50749;51.636;4.948;2023-07-28T10:36:55;4.07;;;2.85;;
59189;SDS011;50749;51.636;4.948;2023-07-28T10:39:24;4.50;;;2.90;;
59189;SDS011;50749;51.636;4.948;2023-07-28T10:42:01;5.57;;;2.92;;
59189;SDS011;50749;51.636;4.948;2023-07-28T10:44:32;4.05;;;2.70;;
59189;SDS011;50749;51.636;4.948;2023-07-28T10:46:58;4.18;;;2.70;;
59189;SDS011;50749;51.636;4.948;2023-07-28T10:49:27;3.75;;;2.67;;
59189;SDS011;50749;51.636;4.948;2023-07-28T10:51:54;5.03;;;2.90;;
59189;SDS011;50749;51.636;4.948;2023-07-28T10:54:20;5.60;;;3.08;;
59189;SDS011;50749;51.636;4.948;2023-07-28T10:56:47;3.85;;;2.65;;
59189;SDS011;50749;51.636;4.948;2023-07-28T10:59:13;4.78;;;3.08;;
59189;SDS011;50749;51.636;4.948;2023-07-28T11:01:41;4.70;;;2.63;;
59189;SDS011;50749;51.636;4.948;2023-07-28T11:06:47;3.50;;;2.47;;
59189;SDS011;50749;51.636;4.948;2023-07-28T11:09:16;4.97;;;2.45;;
59189;SDS011;50749;51.636;4.948;2023-07-28T11:11:44;3.10;;;2.30;;
59189;SDS011;50749;51.636;4.948;2023-07-28T11:14:10;4.10;;;2.65;;
59189;SDS011;50749;51.636;4.948;2023-07-28T11:16:40;3.83;;;2.40;;
59189;SDS011;50749;51.636;4.948;2023-07-28T11:19:10;4.10;;;2.58;;
59189;SDS011;50749;51.636;4.948;2023-07-28T11:21:41;4.63;;;2.55;;
59189;SDS011;50749;51.636;4.948;2023-07-28T11:24:08;4.88;;;2.45;;
59189;SDS011;50749;51.636;4.948;2023-07-28T11:26:34;3.75;;;2.80;;
59189;SDS011;50749;51.636;4.948;2023-07-28T11:29:01;4.00;;;2.63;;
59189;SDS011;50749;51.636;4.948;2023-07-28T11:31:27;6.20;;;2.70;;
59189;SDS011;50749;51.636;4.948;2023-07-28T11:33:53;3.92;;;2.60;;
59189;SDS011;50749;51.636;4.948;2023-07-28T11:36:23;3.80;;;2.75;;
59189;SDS011;50749;51.636;4.948;2023-07-28T11:38:50;3.80;;;3.00;;
59189;SDS011;50749;51.636;4.948;2023-07-28T11:41:17;4.10;;;3.00;;
59189;SDS011;50749;51.636;4.948;2023-07-28T11:43:44;4.20;;;3.22;;
59189;SDS011;50749;51.636;4.948;2023-07-28T11:49:09;4.65;;;2.88;;
59189;SDS011;50749;51.636;4.948;2023-07-28T11:51:43;5.25;;;3.42;;
59189;SDS011;50749;51.636;4.948;2023-07-28T11:54:10;4.38;;;3.15;;
59189;SDS011;50749;51.636;4.948;2023-07-28T11:56:43;4.03;;;2.85;;
59189;SDS011;50749;51.636;4.948;2023-07-28T11:59:14;3.97;;;2.83;;
59189;SDS011;50749;51.636;4.948;2023-07-28T12:04:23;7.03;;;3.10;;
59189;SDS011;50749;51.636;4.948;2023-07-28T12:07:03;5.22;;;3.08;;
59189;SDS011;50749;51.636;4.948;2023-07-28T12:12:14;3.80;;;2.80;;
59189;SDS011;50749;51.636;4.948;2023-07-28T12:14:41;4.38;;;3.03;;
59189;SDS011;50749;51.636;4.948;2023-07-28T12:17:17;4.05;;;2.78;;
59189;SDS011;50749;51.636;4.948;2023-07-28T12:22:36;6.72;;;3.40;;
59189;SDS011;50749;51.636;4.948;2023-07-28T12:25:03;6.03;;;2.80;;
59189;SDS011;50749;51.636;4.948;2023-07-28T12:27:30;5.88;;;3.22;;
59189;SDS011;50749;51.636;4.948;2023-07-28T12:29:56;3.70;;;2.85;;
59189;SDS011;50749;51.636;4.948;2023-07-28T12:32:22;3.70;;;3.15;;
59189;SDS011;50749;51.636;4.948;2023-07-28T12:34:48;3.55;;;3.00;;
59189;SDS011;50749;51.636;4.948;2023-07-28T12:37:15;4.82;;;3.17;;
59189;SDS011;50749;51.636;4.948;2023-07-28T12:39:44;5.93;;;3.67;;
59189;SDS011;50749;51.636;4.948;2023-07-28T12:42:11;4.97;;;3.97;;
59189;SDS011;50749;51.636;4.948;2023-07-28T12:44:37;8.82;;;3.85;;
59189;SDS011;50749;51.636;4.948;2023-07-28T12:47:04;4.68;;;3.83;;
59189;SDS011;50749;51.636;4.948;2023-07-28T12:49:30;7.53;;;4.20;;
59189;SDS011;50749;51.636;4.948;2023-07-28T12:51:57;6.45;;;4.10;;
59189;SDS011;50749;51.636;4.948;2023-07-28T12:54:24;7.07;;;5.03;;
59189;SDS011;50749;51.636;4.948;2023-07-28T12:56:51;16.45;;;5.22;;
59189;SDS011;50749;51.636;4.948;2023-07-28T12:59:19;5.50;;;3.85;;
59189;SDS011;50749;51.636;4.948;2023-07-28T13:01:45;7.65;;;4.20;;
59189;SDS011;50749;51.636;4.948;2023-07-28T13:04:11;6.35;;;5.05;;
59189;SDS011;50749;51.636;4.948;2023-07-28T13:06:37;5.95;;;4.93;;
59189;SDS011;50749;51.636;4.948;2023-07-28T13:09:03;7.78;;;4.93;;
59189;SDS011;50749;51.636;4.948;2023-07-28T13:11:32;6.95;;;4.85;;
59189;SDS011;50749;51.636;4.948;2023-07-28T13:13:57;6.80;;;4.60;;
59189;SDS011;50749;51.636;4.948;2023-07-28T13:16:24;7.03;;;4.82;;
59189;SDS011;50749;51.636;4.948;2023-07-28T13:18:49;5.20;;;4.63;;
59189;SDS011;50749;51.636;4.948;2023-07-28T13:21:16;7.00;;;5.05;;
59189;SDS011;50749;51.636;4.948;2023-07-28T13:23:42;6.65;;;5.40;;
59189;SDS011;50749;51.636;4.948;2023-07-28T13:26:07;11.27;;;6.18;;
59189;SDS011;50749;51.636;4.948;2023-07-28T13:28:33;10.40;;;6.03;;
59189;SDS011;50749;51.636;4.948;2023-07-28T13:31:02;8.43;;;6.38;;
59189;SDS011;50749;51.636;4.948;2023-07-28T13:33:29;9.88;;;6.55;;
59189;SDS011;50749;51.636;4.948;2023-07-28T13:35:56;9.98;;;7.07;;
59189;SDS011;50749;51.636;4.948;2023-07-28T13:38:21;9.98;;;6.90;;
59189;SDS011;50749;51.636;4.948;2023-07-28T13:40:48;10.13;;;7.47;;
59189;SDS011;50749;51.636;4.948;2023-07-28T13:43:13;9.18;;;7.15;;
59189;SDS011;50749;51.636;4.948;2023-07-28T13:45:39;9.48;;;6.60;;
59189;SDS011;50749;51.636;4.948;2023-07-28T13:48:05;10.65;;;7.38;;
59189;SDS011;50749;51.636;4.948;2023-07-28T13:50:31;12.35;;;7.88;;
59189;SDS011;50749;51.636;4.948;2023-07-28T13:52:56;11.82;;;7.90;;
59189;SDS011;50749;51.636;4.948;2023-07-28T13:55:22;8.98;;;7.25;;
59189;SDS011;50749;51.636;4.948;2023-07-28T13:57:48;9.30;;;7.00;;
59189;SDS011;50749;51.636;4.948;2023-07-28T14:00:14;11.40;;;7.38;;
59189;SDS011;50749;51.636;4.948;2023-07-28T14:02:40;9.88;;;6.45;;
59189;SDS011;50749;51.636;4.948;2023-07-28T14:05:06;10.18;;;7.50;;
59189;SDS011;50749;51.636;4.948;2023-07-28T14:07:33;8.00;;;6.20;;
59189;SDS011;50749;51.636;4.948;2023-07-28T14:10:00;8.77;;;6.18;;
59189;SDS011;50749;51.636;4.948;2023-07-28T14:12:26;8.95;;;7.38;;
59189;SDS011;50749;51.636;4.948;2023-07-28T14:14:52;11.05;;;6.93;;
59189;SDS011;50749;51.636;4.948;2023-07-28T14:17:18;11.70;;;7.35;;
59189;SDS011;50749;51.636;4.948;2023-07-28T14:19:44;10.80;;;7.45;;
59189;SDS011;50749;51.636;4.948;2023-07-28T14:22:09;11.25;;;8.38;;
59189;SDS011;50749;51.636;4.948;2023-07-28T14:24:36;12.77;;;7.47;;
59189;SDS011;50749;51.636;4.948;2023-07-28T14:27:01;10.30;;;7.85;;
59189;SDS011;50749;51.636;4.948;2023-07-28T14:29:27;8.95;;;6.85;;
59189;SDS011;50749;51.636;4.948;2023-07-28T14:31:53;8.90;;;6.85;;
59189;SDS011;50749;51.636;4.948;2023-07-28T14:34:19;10.02;;;7.32;;
59189;SDS011;50749;51.636;4.948;2023-07-28T14:36:45;8.95;;;7.32;;
59189;SDS011;50749;51.636;4.948;2023-07-28T14:39:10;8.07;;;6.70;;
59189;SDS011;50749;51.636;4.948;2023-07-28T14:41:36;9.38;;;6.90;;
59189;SDS011;50749;51.636;4.948;2023-07-28T14:44:02;8.32;;;6.10;;
59189;SDS011;50749;51.636;4.948;2023-07-28T14:46:28;7.65;;;6.03;;
59189;SDS011;50749;51.636;4.948;2023-07-28T14:48:54;7.78;;;5.57;;
59189;SDS011;50749;51.636;4.948;2023-07-28T14:51:20;6.85;;;5.75;;
59189;SDS011;50749;51.636;4.948;2023-07-28T14:53:46;7.57;;;6.18;;
59189;SDS011;50749;51.636;4.948;2023-07-28T14:56:13;8.88;;;5.70;;
59189;SDS011;50749;51.636;4.948;2023-07-28T14:58:39;7.10;;;6.05;;